Time;durP1;ratioP1;P1;durP2;ratioP2;P2;SDS_P1;SDS_P2;PMS_P1;PMS_P2;Temp;Humidity;BMP_temperature;BMP_pressure;BME280_temperature;BME280_humidity;BME280_pressure;Samples;Min_cycle;Max_cycle;Signal;HPM_P1;HPM_P2
2024/01/21 05:46:11;;;;;;;7.95;4.15;;;;;;;0.43;99.23;101635.66;5836962;24;20142;31
2024/01/21 05:48:36;;;;;;;9.32;3.95;;;;;;;0.37;100.00;101614.78;4785313;29;20426;-74
2024/01/21 05:51:02;;;;;;;6.60;3.53;;;;;;;0.39;100.00;101615.31;4791544;29;20085;-74
2024/01/21 05:53:27;;;;;;;8.98;4.53;;;;;;;0.37;100.00;101634.06;4807008;29;20114;-74
2024/01/21 05:55:53;;;;;;;8.20;4.18;;;;;;;0.37;100.00;101612.84;4808557;29;20134;-74
2024/01/21 05:58:18;;;;;;;8.43;4.22;;;;;;;0.46;100.00;101615.78;4809391;29;20119;-73
2024/01/21 06:00:44;;;;;;;7.60;3.75;;;;;;;0.42;100.00;101614.72;4794234;29;20372;-74
2024/01/21 06:03:09;;;;;;;7.72;4.15;;;;;;;0.45;100.00;101594.88;4805714;29;20039;-74
2024/01/21 06:05:34;;;;;;;5.75;3.60;;;;;;;0.42;100.00;101622.97;4794984;29;20035;-74
2024/01/21 06:08:00;;;;;;;6.85;4.38;;;;;;;0.44;100.00;101609.72;4791115;29;20045;-74
2024/01/21 06:10:25;;;;;;;7.13;3.50;;;;;;;0.43;100.00;101593.53;4800765;29;20030;-75
2024/01/21 06:12:50;;;;;;;5.50;3.75;;;;;;;0.51;100.00;101631.44;4798628;29;20117;-74
2024/01/21 06:15:16;;;;;;;7.50;3.75;;;;;;;0.52;100.00;101636.63;4813306;29;20492;-75
2024/01/21 06:17:41;;;;;;;7.18;4.00;;;;;;;0.52;100.00;101559.50;4792875;29;20039;-75
2024/01/21 06:20:08;;;;;;;8.52;5.38;;;;;;;0.52;100.00;101559.50;4793410;29;20181;-74
2024/01/21 06:22:34;;;;;;;8.00;4.88;;;;;;;0.54;100.00;101565.56;4794690;29;20412;-75
2024/01/21 06:24:59;;;;;;;6.35;4.00;;;;;;;0.63;100.00;101600.72;4811942;29;20034;-74
2024/01/21 06:27:25;;;;;;;9.85;6.18;;;;;;;0.63;100.00;101631.84;4811595;29;20051;-75
2024/01/21 06:29:50;;;;;;;8.85;3.97;;;;;;;0.64;100.00;101583.09;4809193;29;20040;-76
2024/01/21 06:32:15;;;;;;;8.38;4.07;;;;;;;0.62;100.00;101555.00;4794325;29;20146;-74
2024/01/21 06:34:41;;;;;;;6.68;5.22;;;;;;;0.62;100.00;101586.13;4805260;29;20039;-74
2024/01/21 06:37:07;;;;;;;7.30;3.63;;;;;;;0.70;100.00;101592.94;4793661;29;20055;-74
2024/01/21 06:39:32;;;;;;;6.25;3.78;;;;;;;0.73;99.27;101603.38;4795291;29;20035;-74
2024/01/21 06:41:58;;;;;;;6.28;3.60;;;;;;;0.68;98.87;101593.22;4790926;29;20031;-74
2024/01/21 06:44:23;;;;;;;8.63;3.92;;;;;;;0.76;100.00;101592.59;4793252;29;20030;-74
2024/01/21 06:46:49;;;;;;;8.38;4.05;;;;;;;0.76;100.00;101613.78;4785925;29;20197;-75
2024/01/21 06:49:14;;;;;;;10.25;4.57;;;;;;;0.79;100.00;101613.22;4793929;29;20031;-74
2024/01/21 06:51:46;;;;;;;6.70;4.80;;;;;;;0.81;98.91;101633.84;4779765;29;20642;-74
2024/01/21 06:54:14;;;;;;;10.75;4.70;;;;;;;0.98;100.00;101611.31;4785824;29;20043;-74
2024/01/21 06:56:40;;;;;;;6.95;4.28;;;;;;;0.97;98.46;101611.59;4780807;29;20031;-78
2024/01/21 06:59:05;;;;;;;7.30;3.88;;;;;;;1.01;100.00;101596.97;4780594;29;20462;-77
2024/01/21 07:01:30;;;;;;;5.88;3.75;;;;;;;0.99;96.41;101609.38;4783343;29;20445;-77
2024/01/21 07:03:56;;;;;;;6.43;4.25;;;;;;;1.02;100.00;101601.34;4778383;29;20114;-77
2024/01/21 07:06:21;;;;;;;9.60;4.63;;;;;;;1.07;93.16;101591.38;4781852;29;20037;-78
2024/01/21 07:08:47;;;;;;;6.28;3.70;;;;;;;1.07;92.56;101570.13;4779498;29;20045;-79
2024/01/21 07:11:13;;;;;;;6.40;4.13;;;;;;;1.13;93.09;101552.38;4779271;29;20029;-77
2024/01/21 07:13:41;;;;;;;7.43;4.38;;;;;;;1.17;89.30;101591.22;4782548;29;20031;-78
2024/01/21 07:16:07;;;;;;;7.35;4.03;;;;;;;1.18;95.23;101603.88;4775854;29;20129;-78
2024/01/21 07:18:32;;;;;;;8.30;4.28;;;;;;;1.15;93.92;101576.91;4791882;29;20524;-78
2024/01/21 07:20:57;;;;;;;8.48;3.83;;;;;;;1.24;88.54;101563.28;4782215;29;20485;-78
2024/01/21 07:23:23;;;;;;;6.45;4.30;;;;;;;1.62;93.78;101578.72;4782256;29;20043;-78
2024/01/21 07:25:48;;;;;;;7.32;3.65;;;;;;;1.40;93.16;101573.78;4777909;29;20035;-79
2024/01/21 07:28:15;;;;;;;7.15;3.70;;;;;;;1.34;92.11;101563.94;4773368;29;20587;-78
2024/01/21 07:30:40;;;;;;;6.05;4.25;;;;;;;1.26;94.65;101567.38;4780581;29;20130;-78
2024/01/21 07:33:06;;;;;;;8.43;5.05;;;;;;;3.19;74.19;101564.13;4779260;29;20113;-78
2024/01/21 07:35:31;;;;;;;8.85;4.53;;;;;;;1.80;86.82;101559.66;4781675;29;20083;-78
2024/01/21 07:37:56;;;;;;;7.97;4.97;;;;;;;1.45;90.50;101536.22;4780492;29;20042;-78
2024/01/21 07:40:22;;;;;;;9.50;4.68;;;;;;;1.30;90.92;101531.75;4781329;29;20073;-78
2024/01/21 07:42:48;;;;;;;9.93;5.05;;;;;;;1.25;93.45;101543.69;4780723;29;20145;-78
2024/01/21 07:45:14;;;;;;;8.30;4.38;;;;;;;1.27;97.30;101552.47;4781284;29;20515;-78
2024/01/21 07:47:39;;;;;;;8.25;4.25;;;;;;;1.32;95.06;101552.38;4779384;29;20456;-78
2024/01/21 07:50:05;;;;;;;7.35;4.28;;;;;;;1.28;95.93;101576.16;4798581;29;20035;-78
2024/01/21 07:52:31;;;;;;;6.68;3.88;;;;;;;1.33;100.00;101584.38;4777810;29;20099;-78
2024/01/21 07:54:56;;;;;;;9.07;4.68;;;;;;;1.35;93.66;101595.09;4778337;29;20046;-78
2024/01/21 07:57:22;;;;;;;8.20;4.32;;;;;;;1.28;95.48;101609.28;4782144;29;20472;-78
2024/01/21 07:59:47;;;;;;;6.80;4.50;;;;;;;1.38;99.88;101609.13;4778781;29;20050;-78
2024/01/21 08:02:12;;;;;;;7.10;4.05;;;;;;;1.41;94.05;101608.56;4779445;29;20523;-78
2024/01/21 08:04:38;;;;;;;9.10;5.05;;;;;;;1.42;94.87;101607.41;4781056;29;20442;-78
2024/01/21 08:07:03;;;;;;;10.52;4.65;;;;;;;1.42;96.11;101599.13;4781882;29;20046;-78
2024/01/21 08:09:29;;;;;;;9.52;5.63;;;;;;;1.53;93.50;101599.00;4780300;29;20032;-78
2024/01/21 08:11:55;;;;;;;7.75;5.15;;;;;;;1.62;93.31;101613.75;4775678;29;20027;-77
2024/01/21 08:14:21;;;;;;;7.63;4.55;;;;;;;1.50;96.93;101616.16;4794080;29;20087;-77
2024/01/21 08:16:46;;;;;;;8.57;4.47;;;;;;;1.54;97.03;101606.97;4781326;29;21537;-77
2024/01/21 08:19:11;;;;;;;9.60;4.57;;;;;;;1.60;89.68;101621.50;4772804;29;20450;-77
2024/01/21 08:21:37;;;;;;;6.72;4.30;;;;;;;1.65;90.73;101635.25;4780144;29;20488;-77
2024/01/21 08:24:03;;;;;;;8.00;4.13;;;;;;;1.57;97.29;101627.63;4784756;29;20063;-77
2024/01/21 08:26:29;;;;;;;10.05;6.13;;;;;;;1.65;93.84;101624.19;4793556;29;20035;-77
2024/01/21 08:28:54;;;;;;;6.10;4.43;;;;;;;1.68;100.00;101622.78;4784170;29;20083;-77
2024/01/21 08:31:20;;;;;;;8.80;4.30;;;;;;;1.74;93.25;101622.38;4784546;29;20065;-79
2024/01/21 08:33:46;;;;;;;8.73;4.95;;;;;;;1.76;92.45;101617.38;4771726;29;20031;-79
2024/01/21 08:36:11;;;;;;;8.85;5.35;;;;;;;1.71;95.99;101617.47;4776795;29;20042;-79
2024/01/21 08:38:38;;;;;;;8.23;5.50;;;;;;;1.75;96.27;101601.13;4784629;29;20035;-79
2024/01/21 08:41:03;;;;;;;7.47;4.53;;;;;;;2.09;100.00;101587.03;4781263;29;20399;-78
2024/01/21 08:43:29;;;;;;;7.50;4.40;;;;;;;1.85;98.96;101581.63;4782334;29;20031;-78
2024/01/21 08:45:54;;;;;;;9.02;5.10;;;;;;;1.82;94.06;101594.09;4784772;29;20023;-78
2024/01/21 08:48:19;;;;;;;8.98;5.38;;;;;;;1.87;96.42;101606.19;4785223;29;20051;-78
2024/01/21 08:50:45;;;;;;;13.98;5.25;;;;;;;1.83;100.00;101604.03;4797096;29;20027;-78
2024/01/21 08:53:10;;;;;;;13.23;5.53;;;;;;;1.91;98.00;101594.25;4784444;29;20043;-78
2024/01/21 08:55:35;;;;;;;6.88;4.65;;;;;;;1.94;98.33;101595.56;4782160;29;20126;-78
2024/01/21 08:58:02;;;;;;;13.23;5.15;;;;;;;2.04;97.29;101603.69;4782144;29;20485;-78
2024/01/21 09:00:27;;;;;;;7.18;4.25;;;;;;;1.99;100.00;101623.91;4795915;29;20500;-78
2024/01/21 09:02:53;;;;;;;9.43;5.65;;;;;;;2.12;100.00;101624.28;4796609;29;20037;-78
2024/01/21 09:05:18;;;;;;;9.88;4.40;;;;;;;2.11;100.00;101631.75;4781442;29;20786;-78
2024/01/21 09:07:43;;;;;;;11.10;5.38;;;;;;;2.15;100.00;101632.78;4779440;29;20044;-78
2024/01/21 09:10:09;;;;;;;8.23;5.20;;;;;;;2.11;100.00;101645.56;4782168;29;20067;-78
2024/01/21 09:12:35;;;;;;;8.55;4.97;;;;;;;2.20;100.00;101643.72;4800411;29;20039;-78
2024/01/21 09:15:02;;;;;;;9.85;5.15;;;;;;;2.26;100.00;101643.63;4786083;29;20495;-78
2024/01/21 09:17:27;;;;;;;9.13;5.05;;;;;;;2.29;100.00;101643.84;4776835;29;20043;-75
2024/01/21 09:19:52;;;;;;;6.32;4.25;;;;;;;2.39;100.00;101653.91;4776468;29;20485;-74
2024/01/21 09:22:18;;;;;;;8.75;5.30;;;;;;;2.45;100.00;101644.41;4783875;29;20062;-75
2024/01/21 09:24:43;;;;;;;10.77;5.00;;;;;;;2.43;100.00;101644.72;4786907;29;20062;-74
2024/01/21 09:27:08;;;;;;;10.15;5.25;;;;;;;2.48;100.00;101654.84;4779548;29;20474;-75
2024/01/21 09:29:34;;;;;;;8.73;4.45;;;;;;;2.48;100.00;101652.09;4780680;29;20493;-74
2024/01/21 09:31:59;;;;;;;7.43;4.70;;;;;;;2.48;100.00;101652.09;4778762;29;20037;-74
2024/01/21 09:34:25;;;;;;;9.52;5.22;;;;;;;2.53;100.00;101649.25;4777373;29;20050;-75
2024/01/21 09:36:51;;;;;;;5.05;4.00;;;;;;;2.49;100.00;101647.38;4782702;29;20047;-74
2024/01/21 09:39:17;;;;;;;8.25;4.75;;;;;;;2.58;100.00;101657.44;4777329;29;20039;-74
2024/01/21 09:41:50;;;;;;;8.07;5.32;;;;;;;2.69;100.00;101660.00;4788248;29;20062;-75
2024/01/21 09:44:28;;;;;;;8.18;5.25;;;;;;;2.63;100.00;101646.25;4782438;29;20043;-74
2024/01/21 09:46:56;;;;;;;9.15;4.90;;;;;;;2.67;100.00;101640.16;4794032;29;20047;-74
2024/01/21 09:49:24;;;;;;;9.82;5.25;;;;;;;2.62;100.00;101625.28;4789679;29;21291;-73
2024/01/21 09:51:50;;;;;;;11.30;4.82;;;;;;;2.63;100.00;101628.88;4780408;29;20414;-75
2024/01/21 09:54:16;;;;;;;12.20;6.15;;;;;;;2.60;100.00;101633.06;4783874;29;20047;-74
2024/01/21 09:56:43;;;;;;;7.22;4.80;;;;;;;2.65;100.00;101627.44;4778528;29;20068;-74
2024/01/21 09:59:10;;;;;;;10.15;5.50;;;;;;;2.74;100.00;101651.59;4794411;29;20488;-74
2024/01/21 10:01:40;;;;;;;10.90;4.93;;;;;;;2.85;100.00;101655.84;4782797;29;20070;-74
2024/01/21 10:04:10;;;;;;;7.07;4.90;;;;;;;2.79;100.00;101657.88;4783474;29;20046;-74
2024/01/21 10:06:35;;;;;;;8.52;5.10;;;;;;;2.87;100.00;101652.75;4780067;29;20031;-74
2024/01/21 10:09:14;;;;;;;8.60;4.88;;;;;;;2.82;100.00;101660.00;4783266;29;20057;-74
2024/01/21 10:11:40;;;;;;;8.82;5.45;;;;;;;2.87;100.00;101647.22;4776616;29;20031;-74
2024/01/21 10:14:06;;;;;;;10.50;5.22;;;;;;;2.93;100.00;101638.53;4782371;29;20042;-75
2024/01/21 10:16:31;;;;;;;10.82;5.70;;;;;;;2.99;100.00;101640.06;4781626;29;20519;-75
2024/01/21 10:18:57;;;;;;;7.90;4.13;;;;;;;2.95;100.00;101661.16;4783879;29;20045;-74
2024/01/21 10:21:22;;;;;;;12.00;5.75;;;;;;;2.93;100.00;101646.81;4788316;29;20043;-74
2024/01/21 10:23:48;;;;;;;11.68;5.07;;;;;;;2.88;100.00;101648.88;4784006;29;20058;-75
2024/01/21 10:26:13;;;;;;;9.02;5.22;;;;;;;3.22;100.00;101640.13;4781341;29;20484;-77
2024/01/21 10:28:42;;;;;;;8.32;4.88;;;;;;;3.14;100.00;101625.09;4770429;29;20036;-74
2024/01/21 10:31:08;;;;;;;8.07;5.30;;;;;;;3.15;100.00;101615.66;4783796;29;20092;-77
2024/01/21 10:33:33;;;;;;;14.32;5.35;;;;;;;3.09;100.00;101616.06;4778561;29;20047;-75
2024/01/21 10:36:01;;;;;;;9.85;5.50;;;;;;;3.11;100.00;101635.94;4776433;29;20035;-76
2024/01/21 10:38:31;;;;;;;12.95;6.10;;;;;;;3.10;100.00;101639.84;4797245;29;20491;-75
2024/01/21 10:40:59;;;;;;;7.35;4.95;;;;;;;3.01;100.00;101637.78;4782337;29;20046;-74
2024/01/21 10:43:25;;;;;;;7.82;5.18;;;;;;;3.13;100.00;101633.69;4780800;29;20033;-74
2024/01/21 10:45:52;;;;;;;13.25;6.80;;;;;;;3.07;100.00;101634.94;4788964;29;20157;-74
2024/01/21 10:48:19;;;;;;;7.40;4.80;;;;;;;3.07;100.00;101635.75;4776271;29;20922;-77
2024/01/21 10:50:46;;;;;;;11.02;5.72;;;;;;;3.11;100.00;101630.41;4778985;29;20168;-77
2024/01/21 10:53:12;;;;;;;10.10;5.32;;;;;;;3.09;100.00;101632.69;4792618;29;20125;-77
2024/01/21 10:55:41;;;;;;;7.97;4.55;;;;;;;3.08;100.00;101625.50;4781013;29;20031;-77
2024/01/21 10:58:08;;;;;;;7.93;5.07;;;;;;;3.00;100.00;101614.03;4779418;29;20579;-77
2024/01/21 11:00:35;;;;;;;10.30;6.07;;;;;;;2.97;100.00;101619.34;4782304;29;20980;-77
2024/01/21 11:03:27;;;;;;;8.65;6.22;;;;;;;2.91;100.00;101599.31;4770420;29;20131;-77
2024/01/21 11:06:06;;;;;;;10.57;6.60;;;;;;;2.89;100.00;101612.63;4778003;29;20039;-76
2024/01/21 11:08:32;;;;;;;10.40;5.85;;;;;;;2.96;100.00;101610.25;4779857;29;20109;-76
2024/01/21 11:11:15;;;;;;;10.68;5.68;;;;;;;3.04;100.00;101604.00;4783480;29;20142;-77
2024/01/21 11:13:52;;;;;;;11.15;6.82;;;;;;;3.02;100.00;101606.25;4778158;29;20023;-77
2024/01/21 11:16:30;;;;;;;12.32;6.03;;;;;;;2.99;100.00;101604.13;4778646;29;20396;-77
2024/01/21 11:19:04;;;;;;;14.63;6.80;;;;;;;3.05;100.00;101589.03;4771634;29;20456;-77
2024/01/21 11:21:30;;;;;;;14.02;6.53;;;;;;;3.13;100.00;101600.50;4782172;29;20388;-77
2024/01/21 11:23:59;;;;;;;10.90;6.72;;;;;;;3.12;100.00;101601.63;4777928;29;20050;-77
2024/01/21 11:26:28;;;;;;;11.45;7.10;;;;;;;3.17;100.00;101596.81;4780781;29;20023;-77
2024/01/21 11:28:56;;;;;;;13.70;6.43;;;;;;;3.19;100.00;101599.25;4782880;29;20822;-77
2024/01/21 11:31:22;;;;;;;11.05;6.10;;;;;;;3.22;100.00;101598.63;4779541;29;20511;-77
2024/01/21 11:34:10;;;;;;;10.43;6.15;;;;;;;3.17;100.00;101602.34;4776640;29;20046;-76
2024/01/21 11:36:37;;;;;;;9.27;6.13;;;;;;;3.33;100.00;101607.53;4779945;29;20041;-77
2024/01/21 11:39:03;;;;;;;10.80;5.93;;;;;;;3.26;100.00;101606.00;4776452;29;20039;-77
2024/01/21 11:41:41;;;;;;;12.27;5.78;;;;;;;3.42;100.00;101609.25;4794484;29;20173;-77
2024/01/21 11:44:26;;;;;;;9.93;6.82;;;;;;;3.36;100.00;101610.50;4780733;29;20054;-77
2024/01/21 11:46:54;;;;;;;12.02;6.55;;;;;;;3.41;100.00;101612.31;4781815;29;20693;-77
2024/01/21 11:49:20;;;;;;;11.93;5.35;;;;;;;3.43;100.00;101621.13;4778402;29;20063;-77
2024/01/21 11:51:46;;;;;;;15.05;6.95;;;;;;;3.41;100.00;101606.78;4788322;29;20450;-77
2024/01/21 11:54:12;;;;;;;10.02;5.88;;;;;;;3.47;100.00;101600.81;4778539;29;20088;-77
2024/01/21 11:56:39;;;;;;;12.35;6.75;;;;;;;3.50;100.00;101604.09;4793816;29;20101;-77
2024/01/21 11:59:08;;;;;;;11.27;6.63;;;;;;;3.50;100.00;101593.88;4777536;29;20122;-77
2024/01/21 12:01:35;;;;;;;10.40;6.68;;;;;;;3.47;100.00;101597.25;4781354;29;20455;-78
2024/01/21 12:04:02;;;;;;;11.93;7.20;;;;;;;3.61;100.00;101588.91;4782296;29;20127;-77
2024/01/21 12:06:30;;;;;;;10.82;7.10;;;;;;;3.53;100.00;101592.41;4778648;29;20031;-78
2024/01/21 12:08:58;;;;;;;14.82;6.45;;;;;;;3.54;100.00;101582.97;4783102;29;20050;-79
2024/01/21 12:11:23;;;;;;;11.52;6.53;;;;;;;3.50;100.00;101582.78;4780322;29;20142;-78
2024/01/21 12:13:48;;;;;;;11.20;6.93;;;;;;;3.47;100.00;101577.88;4781755;29;20046;-77
2024/01/21 12:16:17;;;;;;;10.40;6.57;;;;;;;3.63;100.00;101586.63;4779789;29;20040;-78
2024/01/21 12:18:44;;;;;;;12.25;6.63;;;;;;;3.69;100.00;101599.22;4772844;29;20043;-76
2024/01/21 12:21:13;;;;;;;11.68;7.63;;;;;;;3.65;100.00;101601.00;4776756;29;20031;-76
2024/01/21 12:23:46;;;;;;;9.63;7.07;;;;;;;3.65;100.00;101592.69;4777152;29;20489;-77
2024/01/21 12:26:19;;;;;;;12.40;6.90;;;;;;;3.62;100.00;101596.06;4777709;29;20381;-76
2024/01/21 12:28:58;;;;;;;11.75;6.10;;;;;;;3.74;100.00;101592.75;4776722;29;20047;-77
2024/01/21 12:31:29;;;;;;;12.60;6.70;;;;;;;3.73;100.00;101591.94;4775795;29;20031;-77
2024/01/21 12:33:56;;;;;;;10.18;5.80;;;;;;;3.66;100.00;101591.53;4779925;29;20051;-76
2024/01/21 12:36:22;;;;;;;15.18;7.68;;;;;;;3.79;100.00;101598.16;4778418;29;20378;-76
2024/01/21 12:38:49;;;;;;;11.75;7.18;;;;;;;3.82;100.00;101581.72;4789176;29;20084;-75
2024/01/21 12:41:15;;;;;;;13.07;6.75;;;;;;;3.79;100.00;101587.06;4781951;29;20035;-75
2024/01/21 12:43:42;;;;;;;11.88;6.25;;;;;;;3.82;100.00;101595.56;4780305;29;20503;-76
2024/01/21 12:46:09;;;;;;;13.73;7.00;;;;;;;3.88;100.00;101576.91;4781355;29;20038;-75
2024/01/21 12:48:34;;;;;;;13.18;8.15;;;;;;;3.90;100.00;101582.09;4784764;29;20583;-75
2024/01/21 12:51:00;;;;;;;14.85;6.72;;;;;;;4.00;100.00;101579.06;4776965;29;20031;-78
2024/01/21 12:53:26;;;;;;;11.52;6.45;;;;;;;4.42;100.00;101574.09;4773413;29;20038;-78
2024/01/21 12:55:52;;;;;;;11.88;7.43;;;;;;;4.09;100.00;101579.97;4776719;29;20488;-74
2024/01/21 12:58:18;;;;;;;11.40;6.43;;;;;;;4.07;100.00;101588.59;4801998;29;20034;-79
2024/01/21 13:00:46;;;;;;;11.50;7.57;;;;;;;4.01;100.00;101584.31;4778161;29;20031;-79
2024/01/21 13:03:11;;;;;;;15.57;7.15;;;;;;;4.02;100.00;101568.50;4779719;29;20031;-76
2024/01/21 13:05:37;;;;;;;14.98;7.18;;;;;;;4.10;100.00;101573.28;4777418;29;20050;-76
2024/01/21 13:08:03;;;;;;;15.57;7.60;;;;;;;4.11;100.00;101558.31;4776339;29;20512;-76
2024/01/21 13:10:29;;;;;;;12.85;7.85;;;;;;;4.03;100.00;101526.63;4784028;29;20023;-76
2024/01/21 13:12:55;;;;;;;11.60;7.30;;;;;;;4.00;100.00;101535.56;4793880;29;20043;-77
2024/01/21 13:15:20;;;;;;;12.20;7.15;;;;;;;4.04;100.00;101552.38;4782029;29;20058;-76
2024/01/21 13:17:46;;;;;;;13.63;6.40;;;;;;;4.03;100.00;101556.28;4778896;29;20493;-78
2024/01/21 13:20:11;;;;;;;15.15;6.95;;;;;;;4.11;100.00;101546.38;4781366;29;20515;-77
2024/01/21 13:22:37;;;;;;;13.20;7.00;;;;;;;4.06;100.00;101550.09;4781082;29;20523;-77
2024/01/21 13:25:02;;;;;;;11.82;5.55;;;;;;;4.00;100.00;101554.13;4780100;29;20122;-77
2024/01/21 13:27:37;;;;;;;14.30;7.35;;;;;;;4.06;100.00;101544.56;4779730;29;20027;-77
2024/01/21 13:32:47;;;;;;;14.23;7.60;;;;;;;4.38;100.00;101525.97;4782140;29;20172;-76
2024/01/21 13:35:13;;;;;;;15.70;8.60;;;;;;;4.65;100.00;101527.69;4781762;29;20035;-77
2024/01/21 13:37:38;;;;;;;17.60;8.35;;;;;;;4.40;100.00;101526.47;4779489;29;20407;-77
2024/01/21 13:40:04;;;;;;;14.40;7.15;;;;;;;4.32;100.00;101538.34;4777347;29;20224;-77
2024/01/21 13:42:29;;;;;;;12.00;7.20;;;;;;;4.31;100.00;101540.28;4779391;29;20468;-77
2024/01/21 13:44:55;;;;;;;12.23;7.15;;;;;;;4.31;100.00;101531.16;4782252;29;20641;-77
2024/01/21 13:47:20;;;;;;;20.83;8.18;;;;;;;4.27;100.00;101517.94;4782197;29;20067;-77
2024/01/21 13:49:46;;;;;;;20.98;7.47;;;;;;;4.22;100.00;101542.22;4792316;29;20397;-77
2024/01/21 13:52:14;;;;;;;12.15;7.35;;;;;;;4.21;100.00;101521.16;4780184;29;20038;-77
2024/01/21 13:54:40;;;;;;;15.15;7.38;;;;;;;4.14;100.00;101534.69;4786439;29;20038;-77
2024/01/21 13:57:07;;;;;;;13.15;6.32;;;;;;;4.26;100.00;101529.34;4780800;29;20035;-77
2024/01/21 13:59:32;;;;;;;16.15;7.78;;;;;;;4.23;100.00;101530.78;4788406;29;20042;-76
2024/01/21 14:01:57;;;;;;;15.02;8.38;;;;;;;4.30;100.00;101532.28;4785061;30;20050;-77
2024/01/21 14:04:23;;;;;;;16.05;6.70;;;;;;;4.30;100.00;101543.38;4784675;29;20283;-77
2024/01/21 14:06:48;;;;;;;12.48;8.07;;;;;;;4.25;100.00;101536.03;4778776;30;20061;-75
2024/01/21 14:09:14;;;;;;;15.48;7.10;;;;;;;4.29;100.00;101531.47;4783601;29;20084;-75
2024/01/21 14:11:40;;;;;;;10.98;7.35;;;;;;;4.31;100.00;101520.09;4776812;29;20035;-74
2024/01/21 14:14:05;;;;;;;13.45;7.57;;;;;;;4.42;100.00;101513.91;4792753;29;20079;-76
2024/01/21 14:16:31;;;;;;;14.60;7.47;;;;;;;4.39;100.00;101497.13;4782400;29;20079;-77
2024/01/21 14:18:56;;;;;;;13.85;7.50;;;;;;;4.28;100.00;101502.97;4789359;29;20046;-78
2024/01/21 14:21:22;;;;;;;18.42;8.18;;;;;;;4.31;100.00;101507.03;4785160;29;20044;-77
2024/01/21 14:23:47;;;;;;;12.15;6.40;;;;;;;4.50;100.00;101508.75;4784881;29;20027;-77
2024/01/21 14:26:15;;;;;;;15.63;7.07;;;;;;;4.32;100.00;101510.63;4796123;29;20056;-77
2024/01/21 14:28:42;;;;;;;20.92;8.65;;;;;;;4.48;100.00;101517.38;4782581;29;20031;-78
2024/01/21 14:31:08;;;;;;;23.25;8.80;;;;;;;4.54;100.00;101520.81;4784713;29;20378;-77
2024/01/21 14:33:34;;;;;;;14.68;8.57;;;;;;;4.43;100.00;101509.22;4787876;29;20042;-77
2024/01/21 14:36:00;;;;;;;18.55;8.13;;;;;;;4.45;100.00;101516.06;4781592;29;20046;-77
2024/01/21 14:38:25;;;;;;;21.73;7.60;;;;;;;4.44;100.00;101527.47;4782086;29;20043;-78
2024/01/21 14:40:51;;;;;;;11.00;6.90;;;;;;;4.38;100.00;101523.19;4781089;29;20473;-77
2024/01/21 14:43:16;;;;;;;15.85;6.93;;;;;;;4.39;100.00;101519.31;4781143;29;20122;-77
2024/01/21 14:45:41;;;;;;;13.13;6.75;;;;;;;4.30;100.00;101526.75;4781177;29;20035;-78
2024/01/21 14:48:09;;;;;;;17.70;9.13;;;;;;;4.42;100.00;101521.41;4794312;29;20501;-78
2024/01/21 14:50:35;;;;;;;18.30;8.10;;;;;;;4.54;100.00;101515.28;4783808;29;20174;-77
2024/01/21 14:53:00;;;;;;;15.77;7.32;;;;;;;4.45;100.00;101506.94;4781538;29;20058;-77
2024/01/21 14:55:25;;;;;;;16.70;7.85;;;;;;;4.55;100.00;101503.03;4783448;29;20047;-77
2024/01/21 14:57:51;;;;;;;18.30;7.38;;;;;;;4.50;100.00;101504.00;4778304;29;20519;-77
2024/01/21 15:00:17;;;;;;;12.43;7.38;;;;;;;4.55;100.00;101489.97;4796877;29;20118;-77
2024/01/21 15:02:42;;;;;;;14.82;7.38;;;;;;;4.65;100.00;101484.13;4786254;29;20126;-77
2024/01/21 15:05:08;;;;;;;14.98;8.30;;;;;;;4.63;100.00;101499.47;4781891;29;20118;-77
2024/01/21 15:07:34;;;;;;;20.83;7.93;;;;;;;4.58;100.00;101506.00;4786476;29;20399;-78
2024/01/21 15:09:59;;;;;;;19.10;7.90;;;;;;;4.57;100.00;101490.47;4775622;29;20158;-78
2024/01/21 15:12:25;;;;;;;15.90;7.75;;;;;;;4.57;100.00;101493.25;4790870;29;20066;-77
2024/01/21 15:15:04;;;;;;;21.58;8.63;;;;;;;4.64;100.00;101471.44;4776598;30;20103;-77
2024/01/21 15:17:30;;;;;;;24.05;8.75;;;;;;;4.62;100.00;101475.66;4778762;29;20027;-76
2024/01/21 15:19:55;;;;;;;13.25;8.25;;;;;;;4.58;100.00;101483.81;4797750;29;20053;-76
2024/01/21 15:22:21;;;;;;;16.75;7.97;;;;;;;4.56;100.00;101491.63;4797027;29;20078;-76
2024/01/21 15:24:47;;;;;;;13.88;7.40;;;;;;;4.54;100.00;101468.16;4796436;29;20689;-76
2024/01/21 15:27:13;;;;;;;14.88;8.25;;;;;;;4.54;100.00;101485.59;4784826;29;20035;-76
2024/01/21 15:29:39;;;;;;;12.40;7.32;;;;;;;4.55;100.00;101462.25;4782062;29;20027;-76
2024/01/21 15:32:06;;;;;;;15.43;7.88;;;;;;;4.44;100.00;101452.63;4782178;29;20050;-76
2024/01/21 15:34:31;;;;;;;18.48;8.93;;;;;;;4.54;100.00;101444.00;4782664;30;20172;-76
2024/01/21 15:36:56;;;;;;;9.95;7.32;;;;;;;4.51;100.00;101416.91;4778575;29;20125;-76
2024/01/21 15:39:22;;;;;;;13.70;7.13;;;;;;;4.37;100.00;101416.25;4784306;29;20073;-76
2024/01/21 15:41:48;;;;;;;13.73;7.03;;;;;;;4.40;100.00;101435.00;4794024;29;20066;-77
2024/01/21 15:44:16;;;;;;;20.00;8.07;;;;;;;4.40;100.00;101449.66;4784273;29;20154;-76
2024/01/21 15:46:46;;;;;;;15.40;8.25;;;;;;;4.34;100.00;101450.13;4776166;29;20047;-77
2024/01/21 15:49:11;;;;;;;13.27;7.25;;;;;;;4.45;100.00;101485.56;4780598;29;20046;-76
2024/01/21 15:51:38;;;;;;;15.40;8.25;;;;;;;4.46;100.00;101486.38;4780081;29;20035;-76
2024/01/21 15:54:06;;;;;;;14.65;8.02;;;;;;;4.50;100.00;101492.91;4790928;29;20084;-76
2024/01/21 15:56:33;;;;;;;15.93;8.48;;;;;;;4.45;100.00;101491.13;4782454;29;20031;-76
2024/01/21 15:59:00;;;;;;;17.85;8.55;;;;;;;4.41;100.00;101472.69;4774483;29;20057;-76
2024/01/21 16:01:26;;;;;;;14.30;7.85;;;;;;;4.41;100.00;101467.13;4786141;29;20118;-76
2024/01/21 16:03:52;;;;;;;20.23;8.43;;;;;;;4.45;100.00;101487.53;4776801;29;20134;-76
2024/01/21 16:06:17;;;;;;;18.48;7.30;;;;;;;4.45;100.00;101473.66;4778497;29;20400;-76
2024/01/21 16:08:43;;;;;;;16.48;8.00;;;;;;;4.48;100.00;101484.09;4780938;29;20031;-76
2024/01/21 16:11:08;;;;;;;18.58;7.82;;;;;;;4.50;100.00;101469.94;4781454;29;20512;-76
2024/01/21 16:13:34;;;;;;;14.43;8.45;;;;;;;4.54;100.00;101468.16;4786286;29;20540;-76
2024/01/21 16:15:59;;;;;;;16.30;7.95;;;;;;;4.53;100.00;101474.81;4788610;29;20035;-76
2024/01/21 16:18:24;;;;;;;15.73;8.73;;;;;;;4.54;100.00;101468.16;4793842;29;20031;-76
2024/01/21 16:20:51;;;;;;;20.88;8.85;;;;;;;4.48;100.00;101475.78;4796530;29;20039;-77
2024/01/21 16:23:16;;;;;;;12.73;8.18;;;;;;;4.62;100.00;101470.94;4782932;29;20043;-76
2024/01/21 16:25:42;;;;;;;17.73;8.52;;;;;;;4.56;100.00;101466.69;4782386;29;20051;-76
2024/01/21 16:28:10;;;;;;;13.50;8.60;;;;;;;4.57;100.00;101467.50;4780633;29;20035;-78
2024/01/21 16:30:36;;;;;;;22.92;9.07;;;;;;;4.55;100.00;101469.75;4781360;29;20507;-78
2024/01/21 16:33:01;;;;;;;12.98;8.38;;;;;;;4.62;100.00;101472.91;4781276;29;20047;-78
2024/01/21 16:35:26;;;;;;;15.13;8.27;;;;;;;4.57;100.00;101462.75;4779191;29;20042;-78
2024/01/21 16:37:52;;;;;;;20.35;7.97;;;;;;;4.46;100.00;101459.47;4779655;29;20043;-78
2024/01/21 16:40:17;;;;;;;14.70;8.10;;;;;;;4.60;100.00;101453.00;4782178;29;20042;-77
2024/01/21 16:42:42;;;;;;;13.82;7.60;;;;;;;4.63;100.00;101469.78;4778470;29;20481;-77
2024/01/21 16:45:14;;;;;;;11.80;6.68;;;;;;;4.61;100.00;101474.03;4797018;29;20485;-77
2024/01/21 16:47:39;;;;;;;13.00;8.55;;;;;;;4.58;100.00;101472.72;4787290;29;20055;-77
2024/01/21 16:50:05;;;;;;;14.15;8.50;;;;;;;4.64;100.00;101460.34;4787617;29;20034;-77
2024/01/21 16:52:32;;;;;;;20.15;9.18;;;;;;;4.62;100.00;101457.06;4786703;29;20443;-78
2024/01/21 16:54:58;;;;;;;16.95;8.90;;;;;;;4.64;100.00;101457.56;4787146;29;20170;-77
2024/01/21 16:57:24;;;;;;;15.55;9.63;;;;;;;4.58;100.00;101450.53;4785873;30;20564;-77
2024/01/21 16:59:54;;;;;;;18.23;9.25;;;;;;;4.60;100.00;101442.72;4786041;30;20573;-77
2024/01/21 17:02:22;;;;;;;17.08;8.90;;;;;;;4.60;100.00;101437.16;4782842;29;20122;-77
2024/01/21 17:04:47;;;;;;;21.67;10.63;;;;;;;4.66;100.00;101410.13;4788940;29;20039;-78
2024/01/21 17:07:13;;;;;;;14.98;8.45;;;;;;;4.69;100.00;101432.44;4778622;29;20042;-77